sensor_id;sensor_type;location;lat;lon;timestamp;P1;durP1;ratioP1;P2;durP2;ratioP2
4391;SDS011;2210;51.938;8.488;2022-08-19T00:02:32;7.60;;;4.67;;
4391;SDS011;2210;51.938;8.488;2022-08-19T00:06:33;9.57;;;4.80;;
4391;SDS011;2210;51.938;8.488;2022-08-19T00:10:35;10.77;;;4.87;;
4391;SDS011;2210;51.938;8.488;2022-08-19T00:14:36;13.07;;;4.90;;
4391;SDS011;2210;51.938;8.488;2022-08-19T00:18:38;5.47;;;4.43;;
4391;SDS011;2210;51.938;8.488;2022-08-19T00:22:40;9.00;;;4.83;;
4391;SDS011;2210;51.938;8.488;2022-08-19T00:26:41;14.80;;;4.50;;
4391;SDS011;2210;51.938;8.488;2022-08-19T00:30:42;11.03;;;5.17;;
4391;SDS011;2210;51.938;8.488;2022-08-19T00:34:43;7.70;;;4.90;;
4391;SDS011;2210;51.938;8.488;2022-08-19T00:38:43;7.07;;;4.77;;
4391;SDS011;2210;51.938;8.488;2022-08-19T00:42:43;11.83;;;4.63;;
4391;SDS011;2210;51.938;8.488;2022-08-19T00:46:45;8.30;;;4.27;;
4391;SDS011;2210;51.938;8.488;2022-08-19T00:50:47;6.97;;;3.97;;
4391;SDS011;2210;51.938;8.488;2022-08-19T00:54:50;11.40;;;4.93;;
4391;SDS011;2210;51.938;8.488;2022-08-19T00:58:52;6.10;;;4.20;;
4391;SDS011;2210;51.938;8.488;2022-08-19T01:02:55;13.63;;;4.50;;
4391;SDS011;2210;51.938;8.488;2022-08-19T01:06:56;7.47;;;4.93;;
4391;SDS011;2210;51.938;8.488;2022-08-19T01:10:58;6.07;;;5.03;;
4391;SDS011;2210;51.938;8.488;2022-08-19T01:14:59;5.60;;;4.70;;
4391;SDS011;2210;51.938;8.488;2022-08-19T01:19:00;6.30;;;4.33;;
4391;SDS011;2210;51.938;8.488;2022-08-19T01:23:02;6.30;;;5.70;;
4391;SDS011;2210;51.938;8.488;2022-08-19T01:27:04;6.50;;;5.10;;
4391;SDS011;2210;51.938;8.488;2022-08-19T01:31:09;6.80;;;5.70;;
4391;SDS011;2210;51.938;8.488;2022-08-19T01:35:13;9.40;;;5.80;;
4391;SDS011;2210;51.938;8.488;2022-08-19T01:39:14;8.63;;;5.93;;
4391;SDS011;2210;51.938;8.488;2022-08-19T01:43:20;6.30;;;5.70;;
4391;SDS011;2210;51.938;8.488;2022-08-19T01:47:20;6.93;;;5.47;;
4391;SDS011;2210;51.938;8.488;2022-08-19T01:51:21;9.77;;;5.90;;
4391;SDS011;2210;51.938;8.488;2022-08-19T01:55:21;9.20;;;5.80;;
4391;SDS011;2210;51.938;8.488;2022-08-19T01:59:23;11.33;;;5.97;;
4391;SDS011;2210;51.938;8.488;2022-08-19T02:03:24;6.37;;;5.40;;
4391;SDS011;2210;51.938;8.488;2022-08-19T02:07:24;9.47;;;6.10;;
4391;SDS011;2210;51.938;8.488;2022-08-19T02:11:27;9.30;;;6.20;;
4391;SDS011;2210;51.938;8.488;2022-08-19T02:15:31;8.80;;;7.07;;
4391;SDS011;2210;51.938;8.488;2022-08-19T02:19:32;12.33;;;6.40;;
4391;SDS011;2210;51.938;8.488;2022-08-19T02:23:32;8.80;;;6.43;;
4391;SDS011;2210;51.938;8.488;2022-08-19T02:27:32;7.97;;;5.97;;
4391;SDS011;2210;51.938;8.488;2022-08-19T02:31:33;10.30;;;6.53;;
4391;SDS011;2210;51.938;8.488;2022-08-19T02:35:34;10.97;;;6.97;;
4391;SDS011;2210;51.938;8.488;2022-08-19T02:39:34;9.23;;;6.15;;
4391;SDS011;2210;51.938;8.488;2022-08-19T02:43:34;7.10;;;5.67;;
4391;SDS011;2210;51.938;8.488;2022-08-19T02:47:38;7.07;;;6.37;;
4391;SDS011;2210;51.938;8.488;2022-08-19T02:51:40;8.73;;;6.30;;
4391;SDS011;2210;51.938;8.488;2022-08-19T02:55:43;7.23;;;5.47;;
4391;SDS011;2210;51.938;8.488;2022-08-19T02:59:45;8.53;;;6.00;;
4391;SDS011;2210;51.938;8.488;2022-08-19T03:03:45;8.18;;;5.65;;
4391;SDS011;2210;51.938;8.488;2022-08-19T03:07:46;7.87;;;5.30;;
4391;SDS011;2210;51.938;8.488;2022-08-19T03:11:46;9.60;;;5.60;;
4391;SDS011;2210;51.938;8.488;2022-08-19T03:15:47;8.63;;;6.20;;
4391;SDS011;2210;51.938;8.488;2022-08-19T03:19:47;10.00;;;6.70;;
4391;SDS011;2210;51.938;8.488;2022-08-19T03:23:48;9.03;;;5.90;;
4391;SDS011;2210;51.938;8.488;2022-08-19T03:27:48;8.23;;;6.57;;
4391;SDS011;2210;51.938;8.488;2022-08-19T03:31:48;8.03;;;6.30;;
4391;SDS011;2210;51.938;8.488;2022-08-19T03:36:05;9.30;;;6.57;;
4391;SDS011;2210;51.938;8.488;2022-08-19T03:40:07;8.40;;;5.60;;
4391;SDS011;2210;51.938;8.488;2022-08-19T03:44:07;8.43;;;7.10;;
4391;SDS011;2210;51.938;8.488;2022-08-19T03:48:08;9.77;;;6.87;;
4391;SDS011;2210;51.938;8.488;2022-08-19T03:52:09;8.70;;;6.57;;
4391;SDS011;2210;51.938;8.488;2022-08-19T03:56:10;6.57;;;5.87;;
4391;SDS011;2210;51.938;8.488;2022-08-19T04:00:10;6.33;;;5.73;;
4391;SDS011;2210;51.938;8.488;2022-08-19T04:04:11;8.20;;;6.70;;
4391;SDS011;2210;51.938;8.488;2022-08-19T04:08:11;9.63;;;7.17;;
4391;SDS011;2210;51.938;8.488;2022-08-19T04:12:12;9.63;;;8.57;;
4391;SDS011;2210;51.938;8.488;2022-08-19T04:16:12;11.80;;;8.67;;
4391;SDS011;2210;51.938;8.488;2022-08-19T04:20:13;9.00;;;7.57;;
4391;SDS011;2210;51.938;8.488;2022-08-19T04:24:14;10.77;;;8.67;;
4391;SDS011;2210;51.938;8.488;2022-08-19T04:28:15;9.27;;;8.37;;
4391;SDS011;2210;51.938;8.488;2022-08-19T04:32:15;11.97;;;8.23;;
4391;SDS011;2210;51.938;8.488;2022-08-19T04:36:16;13.27;;;8.75;;
4391;SDS011;2210;51.938;8.488;2022-08-19T04:40:20;10.40;;;8.80;;
4391;SDS011;2210;51.938;8.488;2022-08-19T04:44:39;9.20;;;8.30;;
4391;SDS011;2210;51.938;8.488;2022-08-19T04:48:39;10.35;;;9.18;;
4391;SDS011;2210;51.938;8.488;2022-08-19T04:52:40;10.17;;;9.10;;
4391;SDS011;2210;51.938;8.488;2022-08-19T04:56:43;12.50;;;9.47;;
4391;SDS011;2210;51.938;8.488;2022-08-19T05:00:44;10.63;;;9.07;;
4391;SDS011;2210;51.938;8.488;2022-08-19T05:04:44;10.33;;;8.90;;
4391;SDS011;2210;51.938;8.488;2022-08-19T05:08:44;11.40;;;9.50;;
4391;SDS011;2210;51.938;8.488;2022-08-19T05:12:46;14.90;;;8.13;;
4391;SDS011;2210;51.938;8.488;2022-08-19T05:16:46;13.45;;;10.57;;
4391;SDS011;2210;51.938;8.488;2022-08-19T05:20:46;17.43;;;11.07;;
4391;SDS011;2210;51.938;8.488;2022-08-19T05:25:09;14.47;;;11.77;;
4391;SDS011;2210;51.938;8.488;2022-08-19T05:29:12;15.07;;;10.40;;
4391;SDS011;2210;51.938;8.488;2022-08-19T05:33:14;13.63;;;10.87;;
4391;SDS011;2210;51.938;8.488;2022-08-19T05:37:14;11.60;;;10.40;;
4391;SDS011;2210;51.938;8.488;2022-08-19T05:41:14;18.00;;;12.47;;
4391;SDS011;2210;51.938;8.488;2022-08-19T05:45:15;12.80;;;11.40;;
4391;SDS011;2210;51.938;8.488;2022-08-19T05:49:15;13.77;;;11.33;;
4391;SDS011;2210;51.938;8.488;2022-08-19T05:53:16;24.10;;;13.00;;
4391;SDS011;2210;51.938;8.488;2022-08-19T05:57:18;12.60;;;11.30;;
4391;SDS011;2210;51.938;8.488;2022-08-19T06:01:19;12.07;;;10.50;;
4391;SDS011;2210;51.938;8.488;2022-08-19T06:05:20;15.90;;;11.03;;
4391;SDS011;2210;51.938;8.488;2022-08-19T06:09:21;16.97;;;11.67;;
4391;SDS011;2210;51.938;8.488;2022-08-19T06:13:22;21.07;;;13.60;;
4391;SDS011;2210;51.938;8.488;2022-08-19T06:17:23;14.03;;;11.90;;
4391;SDS011;2210;51.938;8.488;2022-08-19T06:21:26;16.90;;;12.17;;
4391;SDS011;2210;51.938;8.488;2022-08-19T06:25:28;15.50;;;11.70;;
4391;SDS011;2210;51.938;8.488;2022-08-19T06:29:28;16.40;;;12.93;;
4391;SDS011;2210;51.938;8.488;2022-08-19T06:33:29;20.67;;;13.80;;
4391;SDS011;2210;51.938;8.488;2022-08-19T06:37:30;16.10;;;12.38;;
4391;SDS011;2210;51.938;8.488;2022-08-19T06:41:30;16.63;;;12.27;;
4391;SDS011;2210;51.938;8.488;2022-08-19T06:45:31;14.90;;;12.97;;
4391;SDS011;2210;51.938;8.488;2022-08-19T06:49:31;13.93;;;12.13;;
4391;SDS011;2210;51.938;8.488;2022-08-19T06:53:32;12.40;;;11.03;;
4391;SDS011;2210;51.938;8.488;2022-08-19T06:57:33;15.60;;;11.33;;
4391;SDS011;2210;51.938;8.488;2022-08-19T07:01:38;13.53;;;11.17;;
4391;SDS011;2210;51.938;8.488;2022-08-19T07:05:45;12.23;;;10.60;;
4391;SDS011;2210;51.938;8.488;2022-08-19T07:09:46;12.35;;;10.15;;
4391;SDS011;2210;51.938;8.488;2022-08-19T07:13:47;11.70;;;10.07;;
4391;SDS011;2210;51.938;8.488;2022-08-19T07:17:48;12.03;;;9.93;;
4391;SDS011;2210;51.938;8.488;2022-08-19T07:21:49;12.40;;;9.30;;
4391;SDS011;2210;51.938;8.488;2022-08-19T07:25:53;10.70;;;8.80;;
4391;SDS011;2210;51.938;8.488;2022-08-19T07:29:53;12.18;;;8.80;;
4391;SDS011;2210;51.938;8.488;2022-08-19T07:33:55;8.30;;;7.40;;
4391;SDS011;2210;51.938;8.488;2022-08-19T07:37:56;8.10;;;7.00;;
4391;SDS011;2210;51.938;8.488;2022-08-19T07:41:58;7.80;;;7.00;;
4391;SDS011;2210;51.938;8.488;2022-08-19T07:46:00;7.63;;;6.67;;
4391;SDS011;2210;51.938;8.488;2022-08-19T07:50:00;9.33;;;6.17;;
4391;SDS011;2210;51.938;8.488;2022-08-19T07:54:00;6.93;;;5.73;;
4391;SDS011;2210;51.938;8.488;2022-08-19T07:58:01;9.45;;;5.75;;
4391;SDS011;2210;51.938;8.488;2022-08-19T08:02:01;9.47;;;5.03;;
4391;SDS011;2210;51.938;8.488;2022-08-19T08:06:02;8.00;;;4.90;;
4391;SDS011;2210;51.938;8.488;2022-08-19T08:10:21;6.87;;;5.60;;
4391;SDS011;2210;51.938;8.488;2022-08-19T08:14:22;7.20;;;5.57;;
4391;SDS011;2210;51.938;8.488;2022-08-19T08:18:26;6.50;;;5.53;;
4391;SDS011;2210;51.938;8.488;2022-08-19T08:22:26;7.20;;;6.20;;
4391;SDS011;2210;51.938;8.488;2022-08-19T08:26:45;10.17;;;7.00;;
4391;SDS011;2210;51.938;8.488;2022-08-19T08:30:46;7.73;;;6.40;;
4391;SDS011;2210;51.938;8.488;2022-08-19T08:34:48;10.23;;;5.87;;
4391;SDS011;2210;51.938;8.488;2022-08-19T08:38:48;6.57;;;5.50;;
4391;SDS011;2210;51.938;8.488;2022-08-19T08:42:51;7.23;;;6.50;;
4391;SDS011;2210;51.938;8.488;2022-08-19T08:47:01;11.23;;;6.30;;
4391;SDS011;2210;51.938;8.488;2022-08-19T08:51:05;8.43;;;5.67;;
4391;SDS011;2210;51.938;8.488;2022-08-19T08:55:14;8.63;;;5.87;;
4391;SDS011;2210;51.938;8.488;2022-08-19T08:59:29;7.87;;;6.00;;
4391;SDS011;2210;51.938;8.488;2022-08-19T09:03:34;7.10;;;5.00;;
4391;SDS011;2210;51.938;8.488;2022-08-19T09:12:21;7.07;;;4.73;;
4391;SDS011;2210;51.938;8.488;2022-08-19T09:16:21;6.83;;;4.47;;
4391;SDS011;2210;51.938;8.488;2022-08-19T09:20:26;7.67;;;4.03;;
4391;SDS011;2210;51.938;8.488;2022-08-19T09:24:26;7.13;;;4.23;;
4391;SDS011;2210;51.938;8.488;2022-08-19T09:28:27;7.43;;;4.47;;
4391;SDS011;2210;51.938;8.488;2022-08-19T09:32:29;5.70;;;4.10;;
4391;SDS011;2210;51.938;8.488;2022-08-19T09:36:30;3.63;;;3.27;;
4391;SDS011;2210;51.938;8.488;2022-08-19T09:40:35;4.10;;;3.50;;
4391;SDS011;2210;51.938;8.488;2022-08-19T09:44:36;5.93;;;3.60;;
4391;SDS011;2210;51.938;8.488;2022-08-19T09:48:36;4.07;;;3.67;;
4391;SDS011;2210;51.938;8.488;2022-08-19T09:52:37;6.20;;;3.63;;
4391;SDS011;2210;51.938;8.488;2022-08-19T09:56:38;4.57;;;3.87;;
4391;SDS011;2210;51.938;8.488;2022-08-19T10:00:38;3.77;;;3.43;;
4391;SDS011;2210;51.938;8.488;2022-08-19T10:04:39;6.83;;;3.70;;
4391;SDS011;2210;51.938;8.488;2022-08-19T10:08:58;4.77;;;3.57;;
4391;SDS011;2210;51.938;8.488;2022-08-19T10:12:59;7.07;;;2.90;;
4391;SDS011;2210;51.938;8.488;2022-08-19T10:16:59;4.83;;;2.57;;
4391;SDS011;2210;51.938;8.488;2022-08-19T10:25:11;3.93;;;2.50;;
4391;SDS011;2210;51.938;8.488;2022-08-19T10:29:12;5.80;;;2.20;;
4391;SDS011;2210;51.938;8.488;2022-08-19T10:33:15;4.17;;;2.27;;
4391;SDS011;2210;51.938;8.488;2022-08-19T10:37:16;2.73;;;2.20;;
4391;SDS011;2210;51.938;8.488;2022-08-19T10:41:18;4.90;;;2.00;;
4391;SDS011;2210;51.938;8.488;2022-08-19T10:45:22;3.13;;;2.83;;
4391;SDS011;2210;51.938;8.488;2022-08-19T10:49:25;9.13;;;2.70;;
4391;SDS011;2210;51.938;8.488;2022-08-19T10:53:25;4.40;;;2.20;;
4391;SDS011;2210;51.938;8.488;2022-08-19T10:57:29;3.43;;;2.20;;
4391;SDS011;2210;51.938;8.488;2022-08-19T11:01:31;2.23;;;1.97;;
4391;SDS011;2210;51.938;8.488;2022-08-19T11:05:33;1.97;;;1.87;;
4391;SDS011;2210;51.938;8.488;2022-08-19T11:09:40;2.03;;;1.90;;
4391;SDS011;2210;51.938;8.488;2022-08-19T11:13:42;2.50;;;2.00;;
4391;SDS011;2210;51.938;8.488;2022-08-19T11:17:44;4.07;;;2.13;;
4391;SDS011;2210;51.938;8.488;2022-08-19T11:21:47;2.07;;;1.70;;
4391;SDS011;2210;51.938;8.488;2022-08-19T11:25:49;2.20;;;2.00;;
4391;SDS011;2210;51.938;8.488;2022-08-19T11:29:49;2.67;;;2.07;;
4391;SDS011;2210;51.938;8.488;2022-08-19T11:33:49;2.10;;;1.80;;
4391;SDS011;2210;51.938;8.488;2022-08-19T11:37:53;6.13;;;2.30;;
4391;SDS011;2210;51.938;8.488;2022-08-19T11:41:53;2.10;;;2.00;;
4391;SDS011;2210;51.938;8.488;2022-08-19T11:45:55;3.77;;;2.33;;
4391;SDS011;2210;51.938;8.488;2022-08-19T11:49:55;2.17;;;2.07;;
4391;SDS011;2210;51.938;8.488;2022-08-19T11:53:56;2.50;;;2.30;;
4391;SDS011;2210;51.938;8.488;2022-08-19T11:57:57;4.93;;;2.20;;
4391;SDS011;2210;51.938;8.488;2022-08-19T12:01:58;4.90;;;2.50;;
4391;SDS011;2210;51.938;8.488;2022-08-19T12:06:03;2.50;;;2.17;;
4391;SDS011;2210;51.938;8.488;2022-08-19T12:10:09;2.50;;;1.93;;
4391;SDS011;2210;51.938;8.488;2022-08-19T12:14:10;2.40;;;2.20;;
4391;SDS011;2210;51.938;8.488;2022-08-19T12:18:13;3.13;;;1.90;;
4391;SDS011;2210;51.938;8.488;2022-08-19T12:22:14;3.43;;;2.90;;
4391;SDS011;2210;51.938;8.488;2022-08-19T12:26:15;3.67;;;2.70;;
4391;SDS011;2210;51.938;8.488;2022-08-19T12:30:16;1.93;;;1.80;;
4391;SDS011;2210;51.938;8.488;2022-08-19T12:34:16;2.10;;;1.90;;
4391;SDS011;2210;51.938;8.488;2022-08-19T12:38:16;2.07;;;1.90;;
4391;SDS011;2210;51.938;8.488;2022-08-19T12:42:17;3.10;;;2.50;;
4391;SDS011;2210;51.938;8.488;2022-08-19T12:46:18;3.00;;;1.80;;
4391;SDS011;2210;51.938;8.488;2022-08-19T12:50:19;3.53;;;2.07;;
4391;SDS011;2210;51.938;8.488;2022-08-19T12:54:21;3.90;;;2.23;;
4391;SDS011;2210;51.938;8.488;2022-08-19T12:58:21;3.53;;;2.45;;
4391;SDS011;2210;51.938;8.488;2022-08-19T13:02:21;4.67;;;2.30;;
4391;SDS011;2210;51.938;8.488;2022-08-19T13:06:22;2.03;;;1.90;;
4391;SDS011;2210;51.938;8.488;2022-08-19T13:10:24;6.50;;;2.20;;
4391;SDS011;2210;51.938;8.488;2022-08-19T13:14:27;3.10;;;2.50;;
4391;SDS011;2210;51.938;8.488;2022-08-19T13:18:30;5.53;;;2.20;;
4391;SDS011;2210;51.938;8.488;2022-08-19T13:22:31;2.97;;;2.40;;
4391;SDS011;2210;51.938;8.488;2022-08-19T13:26:31;2.10;;;2.00;;
4391;SDS011;2210;51.938;8.488;2022-08-19T13:30:31;2.37;;;2.17;;
4391;SDS011;2210;51.938;8.488;2022-08-19T13:34:50;2.40;;;2.20;;
4391;SDS011;2210;51.938;8.488;2022-08-19T13:38:51;2.53;;;2.00;;
4391;SDS011;2210;51.938;8.488;2022-08-19T13:42:52;2.40;;;2.20;;
4391;SDS011;2210;51.938;8.488;2022-08-19T13:46:54;2.83;;;2.57;;
4391;SDS011;2210;51.938;8.488;2022-08-19T13:50:54;2.53;;;2.30;;
4391;SDS011;2210;51.938;8.488;2022-08-19T13:54:55;2.70;;;2.07;;
4391;SDS011;2210;51.938;8.488;2022-08-19T13:58:56;2.70;;;2.20;;
4391;SDS011;2210;51.938;8.488;2022-08-19T14:02:57;2.63;;;2.10;;
4391;SDS011;2210;51.938;8.488;2022-08-19T14:06:57;3.27;;;2.10;;
4391;SDS011;2210;51.938;8.488;2022-08-19T14:10:58;4.13;;;2.73;;
4391;SDS011;2210;51.938;8.488;2022-08-19T14:14:59;3.03;;;2.20;;
4391;SDS011;2210;51.938;8.488;2022-08-19T14:18:59;1.87;;;1.77;;
4391;SDS011;2210;51.938;8.488;2022-08-19T14:22:59;2.43;;;2.20;;
4391;SDS011;2210;51.938;8.488;2022-08-19T14:27:00;3.40;;;2.30;;
4391;SDS011;2210;51.938;8.488;2022-08-19T14:31:00;2.20;;;2.00;;
4391;SDS011;2210;51.938;8.488;2022-08-19T14:35:03;4.20;;;2.40;;
4391;SDS011;2210;51.938;8.488;2022-08-19T14:39:04;6.17;;;2.50;;
4391;SDS011;2210;51.938;8.488;2022-08-19T14:43:05;2.87;;;2.33;;
4391;SDS011;2210;51.938;8.488;2022-08-19T14:47:05;3.03;;;2.17;;
4391;SDS011;2210;51.938;8.488;2022-08-19T14:51:07;2.33;;;2.00;;
4391;SDS011;2210;51.938;8.488;2022-08-19T14:55:09;2.50;;;2.30;;
4391;SDS011;2210;51.938;8.488;2022-08-19T14:59:09;5.38;;;2.40;;
4391;SDS011;2210;51.938;8.488;2022-08-19T15:03:09;3.97;;;2.20;;
4391;SDS011;2210;51.938;8.488;2022-08-19T15:07:10;2.90;;;2.60;;
4391;SDS011;2210;51.938;8.488;2022-08-19T15:11:12;2.87;;;2.57;;
4391;SDS011;2210;51.938;8.488;2022-08-19T15:15:16;2.60;;;2.40;;
4391;SDS011;2210;51.938;8.488;2022-08-19T15:19:17;2.67;;;2.40;;
4391;SDS011;2210;51.938;8.488;2022-08-19T15:23:18;3.50;;;2.67;;
4391;SDS011;2210;51.938;8.488;2022-08-19T15:27:19;4.10;;;2.63;;
4391;SDS011;2210;51.938;8.488;2022-08-19T15:31:20;2.40;;;2.20;;
4391;SDS011;2210;51.938;8.488;2022-08-19T15:35:22;2.60;;;2.40;;
4391;SDS011;2210;51.938;8.488;2022-08-19T15:39:23;5.00;;;2.43;;
4391;SDS011;2210;51.938;8.488;2022-08-19T15:43:23;2.70;;;2.28;;
4391;SDS011;2210;51.938;8.488;2022-08-19T15:47:23;2.87;;;2.63;;
4391;SDS011;2210;51.938;8.488;2022-08-19T15:51:24;2.60;;;2.40;;
4391;SDS011;2210;51.938;8.488;2022-08-19T15:55:27;3.20;;;2.90;;
4391;SDS011;2210;51.938;8.488;2022-08-19T15:59:32;3.60;;;2.93;;
4391;SDS011;2210;51.938;8.488;2022-08-19T16:03:52;2.23;;;2.10;;
4391;SDS011;2210;51.938;8.488;2022-08-19T16:08:12;4.67;;;2.87;;
4391;SDS011;2210;51.938;8.488;2022-08-19T16:12:14;3.83;;;2.30;;
4391;SDS011;2210;51.938;8.488;2022-08-19T16:16:15;2.77;;;2.57;;
4391;SDS011;2210;51.938;8.488;2022-08-19T16:20:19;6.50;;;2.60;;
4391;SDS011;2210;51.938;8.488;2022-08-19T16:24:22;3.60;;;2.53;;
4391;SDS011;2210;51.938;8.488;2022-08-19T16:28:24;2.97;;;2.67;;
4391;SDS011;2210;51.938;8.488;2022-08-19T16:32:24;3.93;;;2.73;;
4391;SDS011;2210;51.938;8.488;2022-08-19T16:36:24;6.00;;;2.60;;
4391;SDS011;2210;51.938;8.488;2022-08-19T16:40:25;3.13;;;2.83;;
4391;SDS011;2210;51.938;8.488;2022-08-19T16:44:25;4.43;;;2.65;;
4391;SDS011;2210;51.938;8.488;2022-08-19T16:48:27;3.07;;;2.77;;
4391;SDS011;2210;51.938;8.488;2022-08-19T16:52:29;4.60;;;2.80;;
4391;SDS011;2210;51.938;8.488;2022-08-19T16:56:29;3.58;;;2.95;;
4391;SDS011;2210;51.938;8.488;2022-08-19T17:00:29;3.03;;;2.83;;
4391;SDS011;2210;51.938;8.488;2022-08-19T17:04:30;3.40;;;3.10;;
4391;SDS011;2210;51.938;8.488;2022-08-19T17:08:30;5.65;;;3.10;;
4391;SDS011;2210;51.938;8.488;2022-08-19T17:12:31;7.47;;;3.17;;
4391;SDS011;2210;51.938;8.488;2022-08-19T17:16:33;4.90;;;3.30;;
4391;SDS011;2210;51.938;8.488;2022-08-19T17:20:35;2.97;;;2.73;;
4391;SDS011;2210;51.938;8.488;2022-08-19T17:24:36;4.00;;;3.10;;
4391;SDS011;2210;51.938;8.488;2022-08-19T17:28:36;3.57;;;3.27;;
4391;SDS011;2210;51.938;8.488;2022-08-19T17:32:37;4.80;;;4.30;;
4391;SDS011;2210;51.938;8.488;2022-08-19T17:36:37;4.78;;;3.88;;
4391;SDS011;2210;51.938;8.488;2022-08-19T17:40:37;6.22;;;4.10;;
4391;SDS011;2210;51.938;8.488;2022-08-19T17:44:40;5.00;;;4.60;;
4391;SDS011;2210;51.938;8.488;2022-08-19T17:48:41;6.00;;;3.73;;
4391;SDS011;2210;51.938;8.488;2022-08-19T17:52:41;7.73;;;3.93;;
4391;SDS011;2210;51.938;8.488;2022-08-19T17:56:43;5.60;;;4.20;;
4391;SDS011;2210;51.938;8.488;2022-08-19T18:00:45;5.57;;;4.57;;
4391;SDS011;2210;51.938;8.488;2022-08-19T18:04:45;4.47;;;4.07;;
4391;SDS011;2210;51.938;8.488;2022-08-19T18:08:45;5.50;;;3.97;;
4391;SDS011;2210;51.938;8.488;2022-08-19T18:12:48;4.33;;;3.93;;
4391;SDS011;2210;51.938;8.488;2022-08-19T18:16:48;4.40;;;4.00;;
4391;SDS011;2210;51.938;8.488;2022-08-19T18:20:49;3.93;;;3.63;;
4391;SDS011;2210;51.938;8.488;2022-08-19T18:24:50;4.57;;;3.97;;
4391;SDS011;2210;51.938;8.488;2022-08-19T18:28:51;4.30;;;3.87;;
4391;SDS011;2210;51.938;8.488;2022-08-19T18:32:52;5.03;;;3.47;;
4391;SDS011;2210;51.938;8.488;2022-08-19T18:36:53;5.80;;;4.43;;
4391;SDS011;2210;51.938;8.488;2022-08-19T18:40:53;3.80;;;3.50;;
4391;SDS011;2210;51.938;8.488;2022-08-19T18:45:12;6.13;;;3.93;;
4391;SDS011;2210;51.938;8.488;2022-08-19T18:49:31;5.83;;;3.57;;
4391;SDS011;2210;51.938;8.488;2022-08-19T18:53:33;5.60;;;4.00;;
4391;SDS011;2210;51.938;8.488;2022-08-19T18:57:34;4.30;;;3.67;;
4391;SDS011;2210;51.938;8.488;2022-08-19T19:01:37;4.18;;;3.88;;
4391;SDS011;2210;51.938;8.488;2022-08-19T19:05:46;4.20;;;3.80;;
4391;SDS011;2210;51.938;8.488;2022-08-19T19:09:47;5.10;;;4.70;;
4391;SDS011;2210;51.938;8.488;2022-08-19T19:13:50;6.80;;;3.73;;
4391;SDS011;2210;51.938;8.488;2022-08-19T19:17:51;6.37;;;3.80;;
4391;SDS011;2210;51.938;8.488;2022-08-19T19:21:53;4.10;;;3.70;;
4391;SDS011;2210;51.938;8.488;2022-08-19T19:25:54;4.27;;;3.97;;
4391;SDS011;2210;51.938;8.488;2022-08-19T19:29:54;4.87;;;4.10;;
4391;SDS011;2210;51.938;8.488;2022-08-19T19:33:55;4.63;;;4.23;;
4391;SDS011;2210;51.938;8.488;2022-08-19T19:37:55;4.90;;;4.50;;
4391;SDS011;2210;51.938;8.488;2022-08-19T19:41:58;4.40;;;4.00;;
4391;SDS011;2210;51.938;8.488;2022-08-19T19:45:58;5.20;;;4.10;;
4391;SDS011;2210;51.938;8.488;2022-08-19T19:49:58;4.23;;;3.93;;
4391;SDS011;2210;51.938;8.488;2022-08-19T19:53:59;4.47;;;4.07;;
4391;SDS011;2210;51.938;8.488;2022-08-19T19:58:00;7.10;;;4.03;;
4391;SDS011;2210;51.938;8.488;2022-08-19T20:02:03;4.20;;;3.80;;
4391;SDS011;2210;51.938;8.488;2022-08-19T20:06:05;4.50;;;4.10;;
4391;SDS011;2210;51.938;8.488;2022-08-19T20:10:06;6.80;;;4.73;;
4391;SDS011;2210;51.938;8.488;2022-08-19T20:14:11;5.10;;;4.70;;
4391;SDS011;2210;51.938;8.488;2022-08-19T20:18:14;7.10;;;3.90;;
4391;SDS011;2210;51.938;8.488;2022-08-19T20:22:14;5.60;;;4.23;;
4391;SDS011;2210;51.938;8.488;2022-08-19T20:26:15;4.57;;;4.17;;
4391;SDS011;2210;51.938;8.488;2022-08-19T20:30:19;9.10;;;5.27;;
4391;SDS011;2210;51.938;8.488;2022-08-19T20:34:20;4.83;;;4.43;;
4391;SDS011;2210;51.938;8.488;2022-08-19T20:38:20;5.30;;;4.80;;
4391;SDS011;2210;51.938;8.488;2022-08-19T20:42:21;7.63;;;4.90;;
4391;SDS011;2210;51.938;8.488;2022-08-19T20:46:22;4.80;;;4.40;;
4391;SDS011;2210;51.938;8.488;2022-08-19T20:50:23;8.17;;;4.93;;
4391;SDS011;2210;51.938;8.488;2022-08-19T20:54:23;10.55;;;5.78;;
4391;SDS011;2210;51.938;8.488;2022-08-19T20:58:24;6.73;;;5.97;;
4391;SDS011;2210;51.938;8.488;2022-08-19T21:02:24;7.50;;;6.07;;
4391;SDS011;2210;51.938;8.488;2022-08-19T21:06:25;6.33;;;5.57;;
4391;SDS011;2210;51.938;8.488;2022-08-19T21:10:25;6.80;;;6.10;;
4391;SDS011;2210;51.938;8.488;2022-08-19T21:14:26;8.30;;;7.00;;
4391;SDS011;2210;51.938;8.488;2022-08-19T21:18:26;9.03;;;6.73;;
4391;SDS011;2210;51.938;8.488;2022-08-19T21:22:26;11.50;;;7.50;;
4391;SDS011;2210;51.938;8.488;2022-08-19T21:26:27;9.67;;;8.03;;
4391;SDS011;2210;51.938;8.488;2022-08-19T21:30:27;9.10;;;7.57;;
4391;SDS011;2210;51.938;8.488;2022-08-19T21:34:27;10.80;;;7.50;;
4391;SDS011;2210;51.938;8.488;2022-08-19T21:38:28;9.30;;;8.20;;
4391;SDS011;2210;51.938;8.488;2022-08-19T21:42:28;9.37;;;8.37;;
4391;SDS011;2210;51.938;8.488;2022-08-19T21:46:29;10.37;;;7.43;;
4391;SDS011;2210;51.938;8.488;2022-08-19T21:50:29;10.10;;;7.50;;
4391;SDS011;2210;51.938;8.488;2022-08-19T21:54:31;9.50;;;7.17;;
4391;SDS011;2210;51.938;8.488;2022-08-19T21:58:32;9.50;;;8.60;;
4391;SDS011;2210;51.938;8.488;2022-08-19T22:02:33;8.03;;;7.10;;
4391;SDS011;2210;51.938;8.488;2022-08-19T22:06:33;12.43;;;8.30;;
4391;SDS011;2210;51.938;8.488;2022-08-19T22:10:34;8.30;;;6.93;;
4391;SDS011;2210;51.938;8.488;2022-08-19T22:14:35;9.30;;;8.23;;
4391;SDS011;2210;51.938;8.488;2022-08-19T22:18:37;8.73;;;6.87;;
4391;SDS011;2210;51.938;8.488;2022-08-19T22:22:38;8.60;;;7.70;;
4391;SDS011;2210;51.938;8.488;2022-08-19T22:26:44;10.20;;;8.07;;
4391;SDS011;2210;51.938;8.488;2022-08-19T22:30:44;7.13;;;6.47;;
4391;SDS011;2210;51.938;8.488;2022-08-19T22:34:46;8.03;;;7.23;;
4391;SDS011;2210;51.938;8.488;2022-08-19T22:38:46;10.15;;;9.20;;
4391;SDS011;2210;51.938;8.488;2022-08-19T22:42:46;10.10;;;8.45;;
4391;SDS011;2210;51.938;8.488;2022-08-19T22:46:48;11.10;;;8.97;;
4391;SDS011;2210;51.938;8.488;2022-08-19T22:50:48;9.23;;;8.43;;
4391;SDS011;2210;51.938;8.488;2022-08-19T22:55:07;11.70;;;9.43;;
4391;SDS011;2210;51.938;8.488;2022-08-19T22:59:08;16.30;;;10.87;;
4391;SDS011;2210;51.938;8.488;2022-08-19T23:03:08;12.27;;;10.00;;
4391;SDS011;2210;51.938;8.488;2022-08-19T23:07:09;12.13;;;10.10;;
4391;SDS011;2210;51.938;8.488;2022-08-19T23:11:09;11.87;;;10.50;;
4391;SDS011;2210;51.938;8.488;2022-08-19T23:15:15;12.93;;;11.53;;
4391;SDS011;2210;51.938;8.488;2022-08-19T23:19:19;11.67;;;10.30;;
4391;SDS011;2210;51.938;8.488;2022-08-19T23:23:20;14.47;;;11.20;;
4391;SDS011;2210;51.938;8.488;2022-08-19T23:27:23;12.57;;;11.30;;
4391;SDS011;2210;51.938;8.488;2022-08-19T23:31:42;12.53;;;10.63;;
4391;SDS011;2210;51.938;8.488;2022-08-19T23:35:42;18.47;;;11.17;;
4391;SDS011;2210;51.938;8.488;2022-08-19T23:39:43;12.70;;;11.40;;
4391;SDS011;2210;51.938;8.488;2022-08-19T23:43:43;15.83;;;10.90;;
4391;SDS011;2210;51.938;8.488;2022-08-19T23:47:43;12.33;;;11.10;;
4391;SDS011;2210;51.938;8.488;2022-08-19T23:51:44;13.97;;;11.63;;
4391;SDS011;2210;51.938;8.488;2022-08-19T23:55:44;19.37;;;12.00;;
4391;SDS011;2210;51.938;8.488;2022-08-19T23:59:47;15.60;;;11.77;;
